Terminal Aerodrome Forecast
Issued by NWS Binghamton, NY

Home | Current Version | Previous Version | Text Only | Print | Product List | Glossary On
Versions: 1 2 3 4 5 6 7 8 9 10 11 12 13 14 15 16 17 18
198
FTUS41 KBGM 180313 AAA
TAFSYR
TAF AMD
KSYR 180313Z 1803/1824 08008KT P6SM SCT015 OVC025
      TEMPO 1803/1806 4SM -RA BR OVC015
     FM180600 07004KT 5SM -DZ BR OVC015
     FM180900 VRB03KT 3SM -DZ BR OVC005
     FM181500 26005KT P6SM -DZ OVC012=

USA.gov is the U.S. government's official web portal to all federal, state and local government web resources and services.